createdAt,value
2023-02-06T00:03:00.726Z,9.63
2023-02-06T00:07:03.409Z,9.83
2023-02-06T00:11:07.544Z,9.87
2023-02-06T00:15:08.650Z,9.57
2023-02-06T00:19:08.856Z,9.77
2023-02-06T00:23:11.503Z,9.63
2023-02-06T00:27:11.671Z,8.87
2023-02-06T00:31:12.906Z,8.63
2023-02-06T00:35:13.057Z,8.80
2023-02-06T00:39:16.876Z,8.57
2023-02-06T00:43:17.411Z,8.57
2023-02-06T00:47:17.797Z,8.13
2023-02-06T00:51:19.161Z,8.53
2023-02-06T00:55:22.132Z,8.87
2023-02-06T00:59:22.266Z,8.70
2023-02-06T01:03:22.323Z,8.23
2023-02-06T01:07:22.434Z,8.63
2023-02-06T01:11:28.599Z,8.97
2023-02-06T01:15:28.988Z,8.70
2023-02-06T01:19:29.689Z,8.63
2023-02-06T01:23:29.837Z,8.03
2023-02-06T01:27:33.132Z,7.83
2023-02-06T01:31:34.836Z,7.87
2023-02-06T01:35:37.630Z,8.30
2023-02-06T01:39:37.973Z,7.70
2023-02-06T01:43:45.526Z,7.10
2023-02-06T01:47:45.611Z,7.03
2023-02-06T01:51:46.675Z,7.60
2023-02-06T01:55:50.443Z,7.70
2023-02-06T02:00:01.896Z,7.07
2023-02-06T02:04:20.733Z,7.20
2023-02-06T02:08:29.373Z,7.00
2023-02-06T02:12:29.686Z,6.87
2023-02-06T02:16:50.227Z,7.03
2023-02-06T02:21:39.219Z,7.77
2023-02-06T02:26:24.675Z,6.77
2023-02-06T02:31:03.531Z,6.80
2023-02-06T02:35:25.371Z,6.50
2023-02-06T02:39:38.242Z,6.57
2023-02-06T02:43:45.647Z,7.03
2023-02-06T02:48:00.889Z,6.70
2023-02-06T02:52:05.310Z,6.93
2023-02-06T02:56:12.761Z,6.63
2023-02-06T03:00:16.069Z,7.03
2023-02-06T03:04:25.723Z,7.30
2023-02-06T03:08:41.961Z,7.23
2023-02-06T03:12:48.805Z,6.63
2023-02-06T03:16:55.508Z,8.03
2023-02-06T03:20:55.977Z,6.70
2023-02-06T03:25:00.795Z,7.60
2023-02-06T03:29:06.930Z,7.73
2023-02-06T03:33:11.070Z,8.47
2023-02-06T03:37:12.164Z,7.90
2023-02-06T03:41:18.004Z,7.63
2023-02-06T03:45:25.515Z,6.97
2023-02-06T03:49:32.167Z,7.50
2023-02-06T03:53:36.181Z,9.90
2023-02-06T03:57:40.871Z,11.20
2023-02-06T04:01:45.131Z,15.80
2023-02-06T04:05:45.347Z,11.60
2023-02-06T04:09:45.409Z,8.77
2023-02-06T04:13:48.026Z,8.30
2023-02-06T04:17:59.534Z,8.70
2023-02-06T04:22:00.921Z,10.40
2023-02-06T04:26:01.212Z,12.07
2023-02-06T04:30:04.100Z,10.17
2023-02-06T04:34:04.210Z,8.80
2023-02-06T04:38:04.341Z,8.17
2023-02-06T04:42:04.657Z,8.73
2023-02-06T04:46:07.720Z,8.80
2023-02-06T04:50:10.581Z,8.60
2023-02-06T04:54:14.569Z,8.30
2023-02-06T04:58:15.040Z,8.50
2023-02-06T05:02:18.054Z,8.23
2023-02-06T05:06:19.123Z,12.03
2023-02-06T05:10:19.513Z,13.33
2023-02-06T05:14:19.685Z,9.97
2023-02-06T05:18:23.140Z,8.63
2023-02-06T05:22:23.215Z,8.63
2023-02-06T05:26:23.733Z,9.23
2023-02-06T05:30:24.161Z,9.23
2023-02-06T05:34:27.159Z,8.77
2023-02-06T05:38:27.404Z,8.90
2023-02-06T05:42:28.061Z,8.97
2023-02-06T05:46:28.458Z,9.97
2023-02-06T05:50:31.237Z,9.07
2023-02-06T05:54:32.492Z,9.40
2023-02-06T05:58:32.632Z,10.27
2023-02-06T06:02:32.691Z,10.40
2023-02-06T06:06:35.487Z,9.33
2023-02-06T06:10:35.622Z,9.50
2023-02-06T06:14:35.682Z,11.30
2023-02-06T06:18:35.920Z,10.67
2023-02-06T06:22:39.659Z,10.73
2023-02-06T06:26:39.749Z,10.90
2023-02-06T06:30:40.282Z,10.57
2023-02-06T06:34:40.366Z,10.57
2023-02-06T06:38:43.087Z,10.57
2023-02-06T06:42:43.346Z,10.17
2023-02-06T06:46:43.540Z,9.40
2023-02-06T06:50:43.756Z,10.13
2023-02-06T06:54:46.714Z,9.93
2023-02-06T06:58:46.998Z,11.40
2023-02-06T07:02:47.331Z,11.33
2023-02-06T07:06:47.468Z,11.97
2023-02-06T07:10:50.836Z,13.27
2023-02-06T07:14:51.078Z,12.27
2023-02-06T07:18:51.200Z,11.70
2023-02-06T07:22:51.502Z,13.43
2023-02-06T07:26:54.112Z,13.57
2023-02-06T07:30:54.173Z,13.97
2023-02-06T07:34:54.332Z,14.90
2023-02-06T07:38:54.389Z,15.90
2023-02-06T07:42:57.026Z,14.30
2023-02-06T07:47:00.486Z,13.63
2023-02-06T07:51:06.225Z,13.10
2023-02-06T07:55:06.833Z,13.73
2023-02-06T07:59:10.288Z,14.43
2023-02-06T08:03:10.917Z,12.80
2023-02-06T08:07:15.075Z,14.10
2023-02-06T08:11:18.704Z,14.60
2023-02-06T08:15:21.656Z,18.80
2023-02-06T08:19:21.894Z,14.87
2023-02-06T08:23:22.278Z,24.87
2023-02-06T08:27:22.455Z,14.83
2023-02-06T08:31:28.936Z,15.17
2023-02-06T08:35:29.556Z,15.10
2023-02-06T08:39:30.749Z,14.40
2023-02-06T08:43:33.013Z,12.60
2023-02-06T08:47:35.869Z,10.93
2023-02-06T08:51:37.937Z,11.67
2023-02-06T08:55:38.608Z,11.70
2023-02-06T08:59:39.051Z,13.23
2023-02-06T09:03:41.877Z,11.60
2023-02-06T09:07:41.976Z,10.67
2023-02-06T09:11:42.560Z,9.73
2023-02-06T09:15:44.155Z,10.13
2023-02-06T09:19:46.933Z,9.67
2023-02-06T09:23:50.144Z,9.30
2023-02-06T09:27:53.163Z,9.10
2023-02-06T09:31:53.292Z,9.33
2023-02-06T09:36:05.444Z,6.40
2023-02-06T09:40:05.606Z,7.07
2023-02-06T09:44:15.310Z,7.10
2023-02-06T09:48:23.317Z,5.77
2023-02-06T09:53:01.857Z,5.83
2023-02-06T09:57:10.844Z,6.60
2023-02-06T10:01:22.187Z,5.73
2023-02-06T10:05:36.809Z,5.80
2023-02-06T10:09:45.726Z,5.97
2023-02-06T10:13:54.542Z,6.30
2023-02-06T10:18:03.082Z,5.87
2023-02-06T10:22:09.976Z,5.60
2023-02-06T10:26:18.660Z,5.97
2023-02-06T10:30:22.668Z,5.10
2023-02-06T10:35:06.387Z,5.03
2023-02-06T10:39:27.846Z,5.50
2023-02-06T10:43:43.708Z,5.17
2023-02-06T10:47:55.186Z,6.33
2023-02-06T10:52:02.830Z,5.33
2023-02-06T10:56:07.180Z,4.37
2023-02-06T11:00:20.223Z,5.03
2023-02-06T11:04:27.965Z,4.53
2023-02-06T11:08:33.870Z,4.57
2023-02-06T11:12:39.017Z,4.40
2023-02-06T11:16:43.241Z,4.40
2023-02-06T11:20:47.425Z,4.83
2023-02-06T11:25:04.114Z,5.33
2023-02-06T11:29:18.816Z,4.67
2023-02-06T11:33:31.236Z,4.60
2023-02-06T11:37:38.481Z,4.10
2023-02-06T11:41:38.617Z,4.87
2023-02-06T11:45:39.621Z,4.27
2023-02-06T11:49:42.737Z,4.27
2023-02-06T11:53:58.549Z,5.23
2023-02-06T11:58:22.485Z,4.63
2023-02-06T12:02:32.042Z,5.30
2023-02-06T12:06:39.096Z,6.23
2023-02-06T12:10:49.164Z,6.20
2023-02-06T12:14:55.835Z,6.07
2023-02-06T12:19:00.725Z,6.00
2023-02-06T12:23:14.722Z,5.67
2023-02-06T12:27:22.661Z,5.77
2023-02-06T12:31:32.234Z,5.43
2023-02-06T12:35:43.878Z,5.70
2023-02-06T12:39:47.405Z,5.40
2023-02-06T12:43:54.733Z,5.73
2023-02-06T12:48:04.447Z,5.93
2023-02-06T12:52:17.452Z,7.97
2023-02-06T12:56:31.428Z,6.90
2023-02-06T13:01:08.289Z,5.77
2023-02-06T13:05:25.221Z,6.37
2023-02-06T13:09:32.462Z,6.07
2023-02-06T13:13:39.310Z,6.00
2023-02-06T13:17:44.880Z,7.00
2023-02-06T13:21:53.873Z,7.83
2023-02-06T13:25:56.973Z,5.70
2023-02-06T13:30:18.557Z,6.43
2023-02-06T13:34:21.743Z,6.37
2023-02-06T13:38:42.379Z,6.70
2023-02-06T13:42:51.993Z,6.13
2023-02-06T13:47:31.287Z,6.20
2023-02-06T13:51:52.567Z,5.83
2023-02-06T13:56:22.000Z,5.87
2023-02-06T14:00:28.995Z,6.30
2023-02-06T14:04:34.549Z,6.10
2023-02-06T14:08:51.516Z,5.87
2023-02-06T14:13:10.664Z,6.47
2023-02-06T14:17:28.280Z,7.00
2023-02-06T14:21:49.593Z,6.83
2023-02-06T14:26:27.607Z,5.90
2023-02-06T14:30:40.380Z,6.47
2023-02-06T14:35:01.555Z,6.60
2023-02-06T14:39:48.814Z,6.93
2023-02-06T14:43:53.599Z,13.17
2023-02-06T14:47:56.046Z,8.10
2023-02-06T14:51:56.406Z,7.10
2023-02-06T14:56:12.387Z,6.57
2023-02-06T15:00:22.487Z,6.90
2023-02-06T15:04:26.140Z,6.77
2023-02-06T15:08:26.190Z,8.03
2023-02-06T15:12:32.195Z,7.23
2023-02-06T15:16:33.123Z,7.70
2023-02-06T15:20:40.471Z,8.27
2023-02-06T15:25:13.102Z,8.97
2023-02-06T15:29:23.081Z,8.07
2023-02-06T15:38:42.834Z,8.30
2023-02-06T15:42:48.346Z,9.37
2023-02-06T15:46:55.730Z,8.90
2023-02-06T15:51:05.765Z,10.63
2023-02-06T15:55:08.807Z,9.67
2023-02-06T15:59:21.934Z,10.70
2023-02-06T16:03:32.681Z,10.47
2023-02-06T16:07:37.456Z,10.30
2023-02-06T16:11:52.455Z,10.70
2023-02-06T16:16:22.926Z,12.33
2023-02-06T16:20:40.993Z,13.30
2023-02-06T16:24:41.204Z,12.53
2023-02-06T16:28:52.555Z,11.60
2023-02-06T16:32:55.562Z,13.40
2023-02-06T16:37:01.210Z,13.10
2023-02-06T16:41:02.579Z,12.13
2023-02-06T16:45:12.099Z,12.53
2023-02-06T16:49:16.450Z,12.93
2023-02-06T16:53:24.056Z,13.93
2023-02-06T16:57:30.897Z,12.93
2023-02-06T17:01:33.182Z,17.63
2023-02-06T17:05:36.190Z,12.77
2023-02-06T17:09:39.123Z,12.03
2023-02-06T17:13:39.355Z,12.97
2023-02-06T17:17:39.754Z,12.30
2023-02-06T17:21:40.136Z,11.00
2023-02-06T17:25:46.347Z,11.30
2023-02-06T17:29:47.766Z,10.30
2023-02-06T17:33:48.185Z,8.40
2023-02-06T17:37:49.335Z,7.30
2023-02-06T17:41:53.180Z,6.93
2023-02-06T17:45:53.258Z,7.10
2023-02-06T17:49:53.556Z,7.77
2023-02-06T17:53:54.716Z,8.87
2023-02-06T17:57:59.103Z,10.00
2023-02-06T18:02:00.136Z,8.17
2023-02-06T18:06:02.804Z,7.27
2023-02-06T18:10:11.128Z,8.13
2023-02-06T18:14:13.876Z,7.53
2023-02-06T18:18:17.959Z,7.53
2023-02-06T18:22:27.106Z,8.13
2023-02-06T18:26:30.797Z,9.80
2023-02-06T18:30:36.833Z,9.23
2023-02-06T18:34:37.642Z,9.10
2023-02-06T18:38:38.264Z,10.10
2023-02-06T18:42:50.795Z,9.00
2023-02-06T18:46:53.909Z,9.03
2023-02-06T18:50:56.972Z,8.97
2023-02-06T18:54:58.825Z,7.87
2023-02-06T18:58:59.256Z,7.17
2023-02-06T19:03:04.679Z,6.87
2023-02-06T19:07:04.862Z,7.53
2023-02-06T19:11:05.222Z,8.97
2023-02-06T19:15:05.527Z,10.30
2023-02-06T19:19:09.753Z,13.73
2023-02-06T19:23:10.253Z,11.50
2023-02-06T19:27:10.575Z,12.43
2023-02-06T19:31:13.143Z,12.30
2023-02-06T19:35:17.325Z,13.00
2023-02-06T19:39:17.737Z,14.00
2023-02-06T19:43:19.119Z,13.67
2023-02-06T19:47:19.289Z,13.50
2023-02-06T19:51:25.966Z,12.03
2023-02-06T19:55:26.102Z,12.90
2023-02-06T19:59:29.481Z,37.33
2023-02-06T20:03:29.754Z,24.50
2023-02-06T20:07:33.157Z,16.67
2023-02-06T20:11:35.607Z,16.87
2023-02-06T20:15:41.259Z,14.83
2023-02-06T20:19:41.587Z,17.47
2023-02-06T20:23:44.279Z,21.97
2023-02-06T20:27:44.413Z,16.67
2023-02-06T20:31:45.083Z,15.43
2023-02-06T20:35:46.105Z,58.10
2023-02-06T20:39:49.556Z,30.07
2023-02-06T20:43:51.150Z,36.37
2023-02-06T20:47:51.348Z,26.33
2023-02-06T20:51:52.809Z,18.73
2023-02-06T20:55:55.710Z,15.13
2023-02-06T20:59:56.188Z,15.00
2023-02-06T21:04:02.657Z,15.10
2023-02-06T21:08:04.573Z,16.37
2023-02-06T21:12:08.069Z,15.57
2023-02-06T21:16:10.865Z,15.20
2023-02-06T21:20:14.038Z,16.03
2023-02-06T21:24:14.662Z,16.57
2023-02-06T21:28:19.304Z,15.33
2023-02-06T21:32:19.519Z,14.70
2023-02-06T21:36:21.322Z,15.03
2023-02-06T21:40:21.641Z,14.50
2023-02-06T21:44:26.601Z,15.17
2023-02-06T21:48:26.632Z,14.57
2023-02-06T21:52:26.821Z,14.93
2023-02-06T21:56:30.336Z,15.13
2023-02-06T22:00:32.991Z,15.17
2023-02-06T22:04:33.430Z,15.80
2023-02-06T22:08:34.469Z,15.93
2023-02-06T22:12:34.792Z,18.03
2023-02-06T22:16:37.581Z,17.10
2023-02-06T22:20:37.615Z,15.77
2023-02-06T22:24:37.673Z,18.70
2023-02-06T22:28:38.424Z,15.17
2023-02-06T22:32:42.943Z,15.13
2023-02-06T22:36:44.632Z,14.93
2023-02-06T22:40:44.676Z,15.70
2023-02-06T22:44:44.750Z,15.43
2023-02-06T22:48:47.417Z,15.53
2023-02-06T22:52:59.952Z,15.83
2023-02-06T22:57:00.239Z,15.70
2023-02-06T23:01:05.494Z,15.77
2023-02-06T23:05:10.583Z,15.53
2023-02-06T23:09:15.330Z,15.30
2023-02-06T23:13:15.501Z,13.97
2023-02-06T23:17:15.588Z,15.63
2023-02-06T23:21:20.921Z,16.30
2023-02-06T23:25:21.179Z,15.70
2023-02-06T23:29:25.531Z,15.60
2023-02-06T23:33:25.759Z,16.53
2023-02-06T23:37:28.830Z,15.80
2023-02-06T23:41:30.961Z,16.53
2023-02-06T23:45:31.412Z,16.73
2023-02-06T23:49:31.689Z,17.63
2023-02-06T23:53:34.787Z,17.43
2023-02-06T23:57:37.886Z,16.97
